createdAt,value
2018-12-18T00:01:53.712Z,54.83
2018-12-18T00:05:07.484Z,50.73
2018-12-18T00:08:16.687Z,51.63
2018-12-18T00:11:26.128Z,48.73
2018-12-18T00:14:35.296Z,57.00
2018-12-18T00:17:44.487Z,53.53
2018-12-18T00:20:53.808Z,47.37
2018-12-18T00:24:03.206Z,52.03
2018-12-18T00:27:12.456Z,42.77
2018-12-18T00:30:21.684Z,43.73
2018-12-18T00:33:30.971Z,43.57
2018-12-18T00:36:40.342Z,39.53
2018-12-18T00:39:49.628Z,39.93
2018-12-18T00:42:58.803Z,39.60
2018-12-18T00:46:08.040Z,38.13
2018-12-18T00:49:17.447Z,39.83
2018-12-18T00:52:26.923Z,38.77
2018-12-18T00:55:36.169Z,39.27
2018-12-18T00:58:45.315Z,37.17
2018-12-18T01:01:59.776Z,36.93
2018-12-18T01:05:09.097Z,38.30
2018-12-18T01:08:18.456Z,36.30
2018-12-18T01:11:27.601Z,35.00
2018-12-18T01:14:36.919Z,38.33
2018-12-18T01:17:46.155Z,39.27
2018-12-18T01:20:55.450Z,39.37
2018-12-18T01:24:04.722Z,41.13
2018-12-18T01:27:13.916Z,39.70
2018-12-18T01:30:23.152Z,39.43
2018-12-18T01:33:32.318Z,39.10
2018-12-18T01:36:41.585Z,37.50
2018-12-18T01:39:50.912Z,43.47
2018-12-18T01:43:00.044Z,37.90
2018-12-18T01:46:09.210Z,42.80
2018-12-18T01:49:18.596Z,38.73
2018-12-18T01:52:27.828Z,39.30
2018-12-18T01:55:37.175Z,34.97
2018-12-18T01:58:46.432Z,37.40
2018-12-18T02:01:55.632Z,37.60
2018-12-18T02:05:05.125Z,37.87
2018-12-18T02:08:14.394Z,35.20
2018-12-18T02:11:23.555Z,34.47
2018-12-18T02:14:33.013Z,36.37
2018-12-18T02:17:42.252Z,37.43
2018-12-18T02:20:51.692Z,37.00
2018-12-18T02:24:01.080Z,34.73
2018-12-18T02:27:15.460Z,38.63
2018-12-18T02:30:24.707Z,35.17
2018-12-18T02:33:33.884Z,36.67
2018-12-18T02:36:43.064Z,38.23
2018-12-18T02:39:52.372Z,38.73
2018-12-18T02:43:01.627Z,35.23
2018-12-18T02:46:10.969Z,40.10
2018-12-18T02:49:20.081Z,42.17
2018-12-18T02:52:29.318Z,39.37
2018-12-18T02:55:38.695Z,38.20
2018-12-18T02:58:47.956Z,36.37
2018-12-18T03:01:57.355Z,37.77
2018-12-18T03:05:06.651Z,40.30
2018-12-18T03:08:15.905Z,42.47
2018-12-18T03:11:25.095Z,40.27
2018-12-18T03:14:34.608Z,43.17
2018-12-18T03:17:43.854Z,40.43
2018-12-18T03:20:53.375Z,41.30
2018-12-18T03:24:02.622Z,41.13
2018-12-18T03:27:11.820Z,41.37
2018-12-18T03:30:21.198Z,46.97
2018-12-18T03:33:30.519Z,43.00
2018-12-18T03:36:39.882Z,43.97
2018-12-18T03:47:23.308Z,41.80
2018-12-18T03:50:32.543Z,49.73
2018-12-18T03:53:41.773Z,51.20
2018-12-18T03:56:51.264Z,47.33
2018-12-18T04:00:00.548Z,51.47
2018-12-18T04:03:09.732Z,48.90
2018-12-18T04:06:20.336Z,51.40
2018-12-18T04:09:30.816Z,53.00
2018-12-18T04:12:41.103Z,52.13
2018-12-18T04:15:52.096Z,51.23
2018-12-18T04:19:01.672Z,57.87
2018-12-18T04:22:11.911Z,55.97
2018-12-18T04:25:21.214Z,58.43
2018-12-18T04:28:30.496Z,60.93
2018-12-18T04:31:39.752Z,63.90
2018-12-18T04:34:48.958Z,68.17
2018-12-18T04:37:58.230Z,67.43
2018-12-18T04:41:07.695Z,68.20
2018-12-18T04:44:16.890Z,66.47
2018-12-18T04:47:26.113Z,58.63
2018-12-18T04:50:35.401Z,65.23
2018-12-18T04:53:44.782Z,68.00
2018-12-18T04:56:53.985Z,63.40
2018-12-18T05:00:03.302Z,68.70
2018-12-18T05:03:12.529Z,65.60
2018-12-18T05:06:21.993Z,71.30
2018-12-18T05:09:31.395Z,68.60
2018-12-18T05:12:40.600Z,75.63
2018-12-18T05:15:50.063Z,77.77
2018-12-18T05:18:59.367Z,74.00
2018-12-18T05:22:08.695Z,77.50
2018-12-18T05:25:18.059Z,72.83
2018-12-18T05:28:27.494Z,74.60
2018-12-18T05:31:36.909Z,87.20
2018-12-18T05:34:46.196Z,82.83
2018-12-18T05:37:55.432Z,80.13
2018-12-18T05:41:04.849Z,80.87
2018-12-18T05:44:14.179Z,81.53
2018-12-18T05:47:23.484Z,79.10
2018-12-18T05:50:32.748Z,78.90
2018-12-18T05:53:42.125Z,84.37
2018-12-18T05:56:51.454Z,75.73
2018-12-18T06:00:00.855Z,77.73
2018-12-18T06:03:10.160Z,79.43
2018-12-18T06:06:19.564Z,77.23
2018-12-18T06:09:29.171Z,74.87
2018-12-18T06:12:38.582Z,70.60
2018-12-18T06:15:47.951Z,66.63
2018-12-18T06:18:57.257Z,69.57
2018-12-18T06:22:08.757Z,66.57
2018-12-18T06:25:18.212Z,65.57
2018-12-18T06:28:27.601Z,64.37
2018-12-18T06:31:36.955Z,65.60
2018-12-18T06:34:46.208Z,64.83
2018-12-18T06:37:55.480Z,64.43
2018-12-18T06:41:04.743Z,67.73
2018-12-18T06:44:14.041Z,74.47
2018-12-18T06:47:23.277Z,62.97
2018-12-18T06:50:32.681Z,57.10
2018-12-18T06:53:42.037Z,60.87
2018-12-18T06:56:51.268Z,65.63
2018-12-18T07:00:00.607Z,66.53
2018-12-18T07:03:09.855Z,64.20
2018-12-18T07:06:19.270Z,54.77
2018-12-18T07:09:28.560Z,60.73
2018-12-18T07:12:37.772Z,60.83
2018-12-18T07:15:47.098Z,62.70
2018-12-18T07:18:56.460Z,55.23
2018-12-18T07:22:05.849Z,63.83
2018-12-18T07:25:15.229Z,63.33
2018-12-18T07:28:24.480Z,63.97
2018-12-18T07:31:34.618Z,57.07
2018-12-18T07:34:44.099Z,57.57
2018-12-18T07:37:53.418Z,58.03
2018-12-18T07:41:02.743Z,57.43
2018-12-18T07:44:12.175Z,62.15
2018-12-18T07:47:21.461Z,56.30
2018-12-18T07:50:30.821Z,55.90
2018-12-18T07:53:40.153Z,53.80
2018-12-18T07:56:49.605Z,58.77
2018-12-18T07:59:58.949Z,52.50
2018-12-18T08:03:08.235Z,50.73
2018-12-18T08:06:17.505Z,53.57
2018-12-18T08:09:26.862Z,51.07
2018-12-18T08:12:36.156Z,58.73
2018-12-18T08:15:45.410Z,50.07
2018-12-18T08:18:54.819Z,82.73
2018-12-18T08:22:04.041Z,52.40
2018-12-18T08:25:13.390Z,58.17
2018-12-18T08:28:22.652Z,55.07
2018-12-18T08:31:32.016Z,52.63
2018-12-18T08:34:41.308Z,55.20
2018-12-18T08:37:50.621Z,52.90
2018-12-18T08:40:59.973Z,62.10
2018-12-18T08:44:09.407Z,60.33
2018-12-18T08:47:18.824Z,50.10
2018-12-18T08:50:28.057Z,54.67
2018-12-18T08:53:37.341Z,78.03
2018-12-18T08:56:46.764Z,64.60
2018-12-18T08:59:55.998Z,58.67
2018-12-18T09:03:05.444Z,47.73
2018-12-18T09:06:14.736Z,48.63
2018-12-18T09:09:24.160Z,87.63
2018-12-18T09:12:33.473Z,75.97
2018-12-18T09:15:48.126Z,65.03
2018-12-18T09:18:57.708Z,75.63
2018-12-18T09:22:07.054Z,71.37
2018-12-18T09:25:16.523Z,43.00
2018-12-18T09:28:25.797Z,41.87
2018-12-18T09:31:35.188Z,42.43
2018-12-18T09:34:44.371Z,46.30
2018-12-18T09:37:59.114Z,43.40
2018-12-18T09:41:14.184Z,42.57
2018-12-18T09:44:23.491Z,39.73
2018-12-18T09:47:32.717Z,41.27
2018-12-18T09:50:42.004Z,36.53
2018-12-18T09:53:51.428Z,41.70
2018-12-18T09:57:01.210Z,39.47
2018-12-18T10:00:10.724Z,38.00
2018-12-18T10:03:19.989Z,41.90
2018-12-18T10:06:29.336Z,54.53
2018-12-18T10:09:38.808Z,51.80
2018-12-18T10:12:53.689Z,50.33
2018-12-18T10:16:03.451Z,48.50
2018-12-18T10:19:12.709Z,41.37
2018-12-18T10:22:22.062Z,52.57
2018-12-18T10:25:31.820Z,44.10
2018-12-18T10:28:41.200Z,43.57
2018-12-18T10:31:50.608Z,43.20
2018-12-18T10:35:00.037Z,40.40
2018-12-18T10:38:09.311Z,45.50
2018-12-18T10:41:18.728Z,40.03
2018-12-18T10:44:28.185Z,40.07
2018-12-18T10:47:37.571Z,44.77
2018-12-18T10:50:47.011Z,39.80
2018-12-18T10:53:56.323Z,59.47
2018-12-18T10:57:05.588Z,41.67
2018-12-18T11:00:20.702Z,37.27
2018-12-18T11:03:30.026Z,36.37
2018-12-18T11:06:39.285Z,38.47
2018-12-18T11:09:48.633Z,40.47
2018-12-18T11:13:03.740Z,41.17
2018-12-18T11:16:13.133Z,39.33
2018-12-18T11:19:22.411Z,40.20
2018-12-18T11:22:31.784Z,40.80
2018-12-18T11:25:41.281Z,40.60
2018-12-18T11:28:50.549Z,36.40
2018-12-18T11:31:59.962Z,38.37
2018-12-18T11:35:09.340Z,36.07
2018-12-18T11:38:18.609Z,31.27
2018-12-18T11:41:28.051Z,39.30
2018-12-18T11:44:37.254Z,39.60
2018-12-18T11:47:46.666Z,38.17
2018-12-18T11:50:55.899Z,40.30
2018-12-18T11:54:05.232Z,34.90
2018-12-18T11:57:14.694Z,38.10
2018-12-18T12:00:24.111Z,34.57
2018-12-18T12:03:33.396Z,38.43
2018-12-18T12:06:42.758Z,33.27
2018-12-18T12:09:52.051Z,39.63
2018-12-18T12:13:01.438Z,36.60
2018-12-18T12:16:10.787Z,33.30
2018-12-18T12:19:20.045Z,29.10
2018-12-18T12:22:29.233Z,32.73
2018-12-18T12:25:38.617Z,32.07
2018-12-18T12:28:47.817Z,33.47
2018-12-18T12:31:57.207Z,35.23
2018-12-18T12:35:06.556Z,35.93
2018-12-18T12:38:15.735Z,34.53
2018-12-18T12:41:24.987Z,38.10
2018-12-18T12:44:34.272Z,38.80
2018-12-18T12:47:47.727Z,43.50
2018-12-18T12:50:56.833Z,39.43
2018-12-18T12:54:06.321Z,34.80
2018-12-18T12:57:15.625Z,40.00
2018-12-18T13:00:25.733Z,38.13
2018-12-18T13:03:35.009Z,41.47
2018-12-18T13:06:44.137Z,41.40
2018-12-18T13:09:53.384Z,36.77
2018-12-18T13:13:02.801Z,39.33
2018-12-18T13:16:12.169Z,36.57
2018-12-18T13:19:21.488Z,38.77
2018-12-18T13:22:30.844Z,38.03
2018-12-18T13:25:40.373Z,42.53
2018-12-18T13:28:49.705Z,43.27
2018-12-18T13:31:58.914Z,42.03
2018-12-18T13:35:08.287Z,36.03
2018-12-18T13:38:17.706Z,40.23
2018-12-18T13:41:27.162Z,37.87
2018-12-18T13:44:36.429Z,40.83
2018-12-18T13:47:45.716Z,39.83
2018-12-18T13:50:55.074Z,45.07
2018-12-18T13:54:04.620Z,57.57
2018-12-18T13:57:14.030Z,45.23
2018-12-18T14:00:23.627Z,51.80
2018-12-18T14:03:33.096Z,47.83
2018-12-18T14:06:42.579Z,51.27
2018-12-18T14:09:52.139Z,56.20
2018-12-18T14:13:01.616Z,54.93
2018-12-18T14:16:10.837Z,41.50
2018-12-18T14:19:20.255Z,50.47
2018-12-18T14:22:29.539Z,47.70
2018-12-18T14:25:38.897Z,52.20
2018-12-18T14:28:48.153Z,42.37
2018-12-18T14:31:57.470Z,47.07
2018-12-18T14:35:06.876Z,44.30
2018-12-18T14:38:16.424Z,42.87
2018-12-18T14:41:25.761Z,45.70
2018-12-18T14:44:35.149Z,41.40
2018-12-18T14:48:47.624Z,41.00
2018-12-18T14:51:56.999Z,46.40
2018-12-18T14:55:06.301Z,48.47
2018-12-18T14:58:15.827Z,46.03
2018-12-18T15:01:25.143Z,45.80
2018-12-18T15:04:34.515Z,43.83
2018-12-18T15:07:43.744Z,45.10
2018-12-18T15:10:52.984Z,44.73
2018-12-18T15:14:02.511Z,42.93
2018-12-18T15:17:11.900Z,40.13
2018-12-18T15:20:21.132Z,44.37
2018-12-18T15:23:30.372Z,39.97
2018-12-18T15:26:39.746Z,43.63
2018-12-18T15:29:49.132Z,39.97
2018-12-18T15:32:58.606Z,41.87
2018-12-18T15:36:08.009Z,42.83
2018-12-18T15:39:17.275Z,43.43
2018-12-18T15:42:26.640Z,40.10
2018-12-18T15:45:35.807Z,44.10
2018-12-18T15:48:45.204Z,39.67
2018-12-18T15:51:54.505Z,41.77
2018-12-18T15:55:04.137Z,46.93
2018-12-18T15:58:13.504Z,43.83
2018-12-18T16:01:22.753Z,43.17
2018-12-18T16:04:32.132Z,45.17
2018-12-18T16:07:41.568Z,52.37
2018-12-18T16:10:50.838Z,53.77
2018-12-18T16:14:00.218Z,52.03
2018-12-18T16:17:09.573Z,58.67
2018-12-18T16:20:18.919Z,58.10
2018-12-18T16:23:28.164Z,65.97
2018-12-18T16:26:37.526Z,58.60
2018-12-18T16:29:46.887Z,60.53
2018-12-18T16:32:56.104Z,66.70
2018-12-18T16:36:05.493Z,60.53
2018-12-18T16:39:15.004Z,59.10
2018-12-18T16:42:24.193Z,71.70
2018-12-18T16:45:33.610Z,68.77
2018-12-18T16:48:42.874Z,84.63
2018-12-18T16:51:52.170Z,77.63
2018-12-18T16:58:17.529Z,73.20
2018-12-18T17:01:26.819Z,72.33
2018-12-18T17:04:36.143Z,69.47
2018-12-18T17:07:45.522Z,74.83
2018-12-18T17:10:54.780Z,80.47
2018-12-18T17:14:04.047Z,96.97
2018-12-18T17:17:13.548Z,85.20
2018-12-18T17:20:22.804Z,63.60
2018-12-18T17:23:32.081Z,67.57
2018-12-18T17:26:41.297Z,68.23
2018-12-18T17:29:50.710Z,68.73
2018-12-18T17:32:59.926Z,66.03
2018-12-18T17:36:09.284Z,69.63
2018-12-18T17:39:18.735Z,76.07
2018-12-18T17:42:28.136Z,77.33
2018-12-18T17:45:37.623Z,72.67
2018-12-18T17:48:47.116Z,78.20
2018-12-18T17:51:56.487Z,72.80
2018-12-18T17:55:05.926Z,71.97
2018-12-18T17:58:17.061Z,74.37
2018-12-18T18:01:26.372Z,76.10
2018-12-18T18:04:35.664Z,73.07
2018-12-18T18:07:45.234Z,88.87
2018-12-18T18:10:54.607Z,79.20
2018-12-18T18:14:03.905Z,79.30
2018-12-18T18:17:13.346Z,77.97
2018-12-18T18:20:22.739Z,75.07
2018-12-18T18:23:32.288Z,75.20
2018-12-18T18:26:41.631Z,73.17
2018-12-18T18:29:50.998Z,83.07
2018-12-18T18:33:00.361Z,85.60
2018-12-18T18:36:09.770Z,79.63
2018-12-18T18:39:19.180Z,74.67
2018-12-18T18:42:28.463Z,74.73
2018-12-18T18:45:37.680Z,70.33
2018-12-18T18:48:47.111Z,76.63
2018-12-18T18:51:56.485Z,83.53
2018-12-18T18:55:05.651Z,77.23
2018-12-18T18:58:14.953Z,74.10
2018-12-18T19:01:24.451Z,81.73
2018-12-18T19:04:34.800Z,82.30
2018-12-18T19:07:44.152Z,69.83
2018-12-18T19:10:53.525Z,80.07
2018-12-18T19:14:02.771Z,78.53
2018-12-18T19:17:12.002Z,75.63
2018-12-18T19:20:21.336Z,78.07
2018-12-18T19:23:30.755Z,77.53
2018-12-18T19:26:40.261Z,73.00
2018-12-18T19:29:49.549Z,78.00
2018-12-18T19:32:58.932Z,79.30
2018-12-18T19:36:08.308Z,72.43
2018-12-18T19:39:17.884Z,70.47
2018-12-18T19:42:27.437Z,78.73
2018-12-18T19:45:36.724Z,68.07
2018-12-18T19:48:46.021Z,73.13
2018-12-18T19:51:55.268Z,75.30
2018-12-18T19:55:04.848Z,67.23
2018-12-18T19:58:14.166Z,67.50
2018-12-18T20:01:23.738Z,79.73
2018-12-18T20:04:33.144Z,70.80
2018-12-18T20:07:42.454Z,78.80
2018-12-18T20:10:51.715Z,71.83
2018-12-18T20:14:01.078Z,70.13
2018-12-18T20:17:10.800Z,73.77
2018-12-18T20:20:20.090Z,69.40
2018-12-18T20:23:29.386Z,71.67
2018-12-18T20:26:38.738Z,68.37
2018-12-18T20:29:48.421Z,65.80
2018-12-18T20:32:57.745Z,70.83
2018-12-18T20:36:06.933Z,71.23
2018-12-18T20:39:16.321Z,66.37
2018-12-18T20:42:25.663Z,66.73
2018-12-18T20:45:34.860Z,65.17
2018-12-18T20:48:44.122Z,75.67
2018-12-18T20:51:53.532Z,66.57
2018-12-18T20:55:02.943Z,78.20
2018-12-18T20:58:12.241Z,74.70
2018-12-18T21:01:21.553Z,77.73
2018-12-18T21:04:30.841Z,82.90
2018-12-18T21:07:40.454Z,86.53
2018-12-18T21:10:49.873Z,79.87
2018-12-18T21:14:05.825Z,82.13
2018-12-18T21:17:15.324Z,78.23
2018-12-18T21:20:24.680Z,80.57
2018-12-18T21:23:34.073Z,81.17
2018-12-18T21:26:43.556Z,82.20
2018-12-18T21:29:53.221Z,87.83
2018-12-18T21:33:02.755Z,74.47
2018-12-18T21:36:12.276Z,77.70
2018-12-18T21:39:21.917Z,84.67
2018-12-18T21:42:31.442Z,77.93
2018-12-18T21:45:40.982Z,81.83
2018-12-18T21:48:50.487Z,80.03
2018-12-18T21:52:00.081Z,84.60
2018-12-18T21:55:09.610Z,76.43
2018-12-18T21:58:19.009Z,79.27
2018-12-18T22:01:28.405Z,81.47
2018-12-18T22:04:37.926Z,87.73
2018-12-18T22:07:47.648Z,75.80
2018-12-18T22:10:57.035Z,85.23
2018-12-18T22:14:06.402Z,77.83
2018-12-18T22:17:15.881Z,80.43
2018-12-18T22:20:25.471Z,84.40
2018-12-18T22:23:35.007Z,81.97
2018-12-18T22:26:44.354Z,82.80
2018-12-18T22:29:53.804Z,85.63
2018-12-18T22:33:03.216Z,78.37
2018-12-18T22:36:12.420Z,82.90
2018-12-18T22:39:21.822Z,81.63
2018-12-18T22:42:31.207Z,80.67
2018-12-18T22:45:40.557Z,81.83
2018-12-18T22:48:50.003Z,76.40
2018-12-18T22:51:59.336Z,82.50
2018-12-18T22:55:08.773Z,78.87
2018-12-18T22:58:18.211Z,83.20
2018-12-18T23:01:34.026Z,86.07
2018-12-18T23:04:43.427Z,81.63
2018-12-18T23:07:52.645Z,85.00
2018-12-18T23:11:02.245Z,80.90
2018-12-18T23:14:11.546Z,80.17
2018-12-18T23:17:21.013Z,91.43
2018-12-18T23:20:30.293Z,96.03
2018-12-18T23:23:39.691Z,103.70
2018-12-18T23:26:49.050Z,91.80
2018-12-18T23:29:58.565Z,100.27
2018-12-18T23:33:08.043Z,100.07
2018-12-18T23:36:17.341Z,98.03
2018-12-18T23:39:26.744Z,97.03
2018-12-18T23:42:36.119Z,90.30
2018-12-18T23:45:45.303Z,98.00
2018-12-18T23:48:54.548Z,85.97
2018-12-18T23:52:03.980Z,97.90
2018-12-18T23:55:13.425Z,97.07
2018-12-18T23:58:22.794Z,95.00
